This site, now in its 15th season, is a labour of love and fun from one of Ottawa's most avid time trialists and number crunchers. It adheres to and is permitted by the laws of Canada, promotes the objectives of every bicycle club whose results are shown, and is donated free of charge by myself for your enjoyment and usage. If you would like results from series you ride in to be shown here, give me (celia@drmath.ca) a shout!


Index Page
ATT OTT WTT AATT CFCTT VVVTT
Help resultformat:
Case-sensitive

OBC Open TT Series - 2008-Aug-21 - 15km (Rockliffe Pkwy) (EvtFactor = 0.9566)

Weather (18:00): Mainly Sunny. Temp.: 25C, Humidity: 48%, Dew Point: 14C, Wind: SSW 8km/h, Pressure: 102.3kPa, Vis: 24km, Humidex: 29.
Weather (19:00): Mainly Sunny. Temp.: 25C, Humidity: 53%, Dew Point: 15C, Wind: SSW 8km/h, Pressure: 102.3kPa, Vis: 24km, Humidex: 28.
Weather (20:00): Mainly Clear. Temp.: 22C, Humidity: 63%, Dew Point: 15C, Wind: S 8km/h, Pressure: 102.3kPa, Vis: 24km, Humidex: 26.

Send photos with description (when/where/what) of yourself on or off of bike to celia@drmath.ca

These results were first posted on the OBC site circa 23:30 on 2008-Aug-22 and are available here for your added pleasure and analysis.

Warm temperatures with only a slight breeze made for some good times despite the high air pressure. Congratulations to Warren MacDonald for taking 7 seconds off of the OTT 15km record which was set by Michael Nash on 2008-Jul-31. There were new category bests in five categories - an excellent first ever male bibit entry by nine year old Nicholas Rancourt, a 6.4% VEM improvement by 80 year old Geoffrey Wright, a 3.9% improvement in the Vet C women's category by Erika Revesz, Warren MacDonald's 3.3% improvement in the Vet A category, and Jennifer Stephenson's 1.4% improvement in the Vet A women's category. You may see tonight's results handicapped via the 2003 OBC handicap method by clicking here, which puts cadet rider Alex Cataford in first place.

In all, 28 of 70 people are marked as having improved upon their previous 2008 15km OTT best, and 24 of 73 as having improved upon their previous database 15km best. There is though at least one error in the reported results - Vytas reported being about a minute slower than is shown... Oh - and a big good luck to Sophie Beraud who is off the Sprints at the Nationals. On her new track bike for the first time tonight, she was one of the most improved.

 
 

BESTS?
 
Y 1 MacDonald, Warren  OBC/EMD 18:32 48.561 1/79 VAM 1/11 1.0327
2 Amos, Ron  OBC/RWR 19:22 46.472 2/79 VBM 1/14 1.0026
3 Datars, Paul  OBC/RWR 19:36 45.918 3/79 VCM 1/16 0.9797
4 Hamilton, Peter OBC 20:05 44.813 4/79 VBM 2/14 1.0025
5 Martel, Brad RWR 20:11 44.591 5/79 VBM 3/14 1.0250
6 Rendall, Glen  RWR 20:21 44.226 6/79 VAM 2/11 0.8866
7 Munden, David EMD 20:36 43.689 7/79 VAM 3/11 0.9522
8 Parniak, Robert  OBC 20:38 43.619 8/79 VAM 4/11 0.9665
9 Schlatter, Sue  EMD 20:41 43.513 9/79 VBF 1/7 0.9737
10 Fontaine, Randy OBC 20:44 43.408 10/79 VAM 5/11 1.0640
Sudac, Rick  OBC/RWR 20:44 43.408 10/79 VCM 2/16 0.9340
12 Zappe, Erich RWR 20:55 43.028 12/79 VBM 4/14 0.9576
Y 13 Cataford, Alex OBC 20:59 42.891 13/79 CAM 1/5 1.0096
Y 14 Romkey, Gary OBC/RWR 21:05 42.688 14/79 VDM 1/8 1.0531
15 Henschel, Peter OBC 21:07 42.620 15/79 VBM 5/14 0.9952
Y 16 Stephenson, Jennifer  OBC/ULT 21:15 42.353 16/79 VAF 1/4 1.0142
17 Campbell, Colin  OBC 21:17 42.287 17/79 VBM 6/14 0.9698
18 Wright, Sean CYC 21:21 42.155 18/79 VBM 7/14 0.9336
19 Cameron, Allen  OBC/RWR 21:29 41.893 19/79 VCM 3/16 0.9838
20 Lapointe, Marc EMD 21:30 41.860 20/79 VAM 6/11 1.0211
21 Farish, Neil  OBC/RWR 21:41 41.507 21/79 VCM 4/16 1.0326
Y 22 Revesz, Erika  OBC 21:53 41.127 22/79 VCF 1/4 1.0749
23 Orange, Robert RWR 22:06 40.724 23/79 VBM 8/14 0.8974
24 Morewood, Colin OBC 22:14 40.480 24/79 CAM 2/5 0.9755
25 Bernard, Christopher APK 22:15 40.449 25/79 CAM 3/5 0.9977
26 Morvan, Jacques  OBC 22:16 40.419 26/79 VDM 2/8 0.8961
Proulx, Steve  EMD 22:16 40.419 26/79 VAM 7/11 0.9213
28 Hinz, Richard OBC 22:18 40.359 28/79 VCM 5/16 0.9690
29 Posthuma, Hans  OBC 22:23 40.208 29/79 VCM 6/16 0.9217
30 Mellon, Alyssa  OBC 22:24 40.179 30/79 SEF 1/2 0.9978
31 Grace, Darrin  OBC/EUR 22:26 40.119 31/79 VBM 9/14 1.0179
Miller, Michael --- 22:26 40.119 31/79 JUM 1/1  
33 Spooner, Tricia  EMD 22:38 39.764 33/79 VAF 2/4 0.9059
34 Burdett, Avery  OBC 22:53 39.330 34/79 VDM 3/8 1.0066
Moerman, Bram  OBC 22:53 39.330 34/79 VDM 3/8 0.9783
36 Shaver, Patrick OBC 22:55 39.273 36/79 SEM 1/1 0.9634
37 Kerckhoff, Hermann  RWR 23:01 39.102 37/79 VEM 1/1 0.9784
38 Orange, Kiernan OBC/RWR 23:09 38.877 38/79 CAM 4/5 0.9914
39 Armstrong, Brian OBC 23:14 38.737 39/79 VBM 10/14 1.0348
Beraud, Sophie
(trying new track bike before Nationals)
OBC 23:14 38.737 39/79 SEF 2/2 1.0908
41 Lampi, Allison OBC/ULT 23:19 38.599 41/79 VAF 3/4 1.0065
42 Blais, Bob OBC 23:20 38.571 42/79 VCM 7/16 1.0129
43 Boulanger, Gaetan  OBC 23:24 38.462 43/79 VDM 5/8 0.9271
44 Dorego, Jean-Louis OBC 23:28 38.352 44/79 VCM 8/16 0.9497
45 Hoppner, Karl --- 23:30 38.298 45/79 CAM 5/5  
46 Coldwell, Michael  ABC 23:38 38.082 46/79 VBM 11/14 1.0429
47 Desjardins, Marcel OBC 23:41 38.001 47/79 VDM 6/8 0.9441
48 Henry, Mike OBC 23:42 37.975 48/79 VAM 8/11 1.1297
49 Bernard, Audrey APK 23:44 37.921 49/79 CAF 1/2 0.9421
50 Yaeger, Dave  OBC 23:50 37.762 50/79 VCM 9/16 1.0148
51 Momtahan, Parham  OBC 23:56 37.604 51/79 VCM 10/16 1.0274
52 Hind, Terry OBC/EUR 24:04 37.396 52/79 VCM 11/16 0.8919
53 Imbrogno, Giorgio  OBC 24:06 37.344 53/79 VCM 12/16 0.9876
54 McInnis, Celia  OBC/ABC 24:14 37.139 54/79 VCF 2/4 0.9938
55 Laplante-Lamarche, Florence OBC 24:15 37.113 55/79 CAF 2/2 0.9714
56 Hoppner, Ken --- 24:16 37.088 56/79 VBM 12/14  
57 Leclair, Gilles OBC 24:19 37.012 57/79 VBM 13/14 1.0911
58 Dionne, Suzanne  OBC 24:21 36.961 58/79 VBF 2/7 0.9675
59 Janusauskas, Vytas  OBC 24:26 36.835 59/79 VCM 13/16 0.9616
60 Konantz, Patricia  OBC 24:33 36.660 60/79 VCF 3/4 1.0392
61 Ingham, Alison  OBC 24:47 36.315 61/79 VBF 3/7 0.9820
62 Langevin, Roger  OBC 24:55 36.120 62/79 VAM 9/11 0.8825
63 Miller, Paul --- 24:56 36.096 63/79 VCM 14/16  
64 Sinkus, Jason --- 25:04 35.904 64/79 VAM 10/11 1.0610
65 Potter, Ric OBC 25:10 35.762 65/79 VDM 7/8  
66 Datars, Sally OBC 25:15 35.644 66/79 VBF 4/7  
67 Robitaille, Brian 
(MTB: Dog trailer hitch kept on because it looks cool)
OBC 25:17 35.597 67/79 VBM 14/14 0.9457
68 Rees, Stephanie  OBC 25:41 35.042 68/79 VAF 4/4 1.0255
69 Ajersch, Mary  OBC 25:47 34.906 69/79 VDF 1/1 1.0019
70 Thomas, Trevor CYC 26:04 34.527 70/79 VAM 11/11 0.6289
71 Stoneham, Ron OBC 26:34 33.877 71/79 VDM 8/8 0.9981
72 Trepanier, Julie OBC 26:43 33.687 72/79 VBF 5/7  
73 McLaren, Louise  OBC 26:52 33.499 73/79 VBF 6/7 0.9380
74 Wright, Geoffrey  OBC 28:38 31.432 74/79 VFM 1/1 1.0642
75 Ramcharan, John OBC 28:51 31.196 75/79 VCM 15/16 0.9607
76 Antonietti, Jetje  OBC 29:11 30.840 76/79 VCF 4/4 0.9462
77 Jay, Sheri OBC 29:34 30.440 77/79 VBF 7/7 0.9115
78 Rancourt, Nicolas OBC 32:40 27.551 78/79 BBM 1/1  
79 Paul, Richard  OBC DNF   79/79 VCM 16/16  
 
Average Speed of all of the above 78 finishes (1170km in 30:23:08):38.505
>>>Average of the Average Speeds for these 78 finishes38.908<<<
 

The number of data records shown above is 79
The server processing of your query took: 0 wallclock secs ( 0.08 usr + 0.00 sys = 0.08 CPU)

Thanks to our Helpers: Gunter Hauschildt, Alex McKnight, Art Morewood, Jol Sidhu.

     


Mar 21 (Good Friday)
Apr 24
May 1 May 6 (10km) May 8 May 13 (10km) May 15 May 20 May 20 (10km) May 22 May 27 May 27 (10km) May 29
Jun 1 (40km) Jun 3 Jun 3 Jun 5 Jun 10 Jun 10 Jun 12 Jun 17 Jun 17 Jun 19 Jun 24 Jun 24 Jun 26
Jul 1 (cancelled - ) Jul 2 Jul 3 Jul 6 (40km) Jul 8 Jul 8 Jul 10 Jul 15 Jul 15 Jul 17 Jul 22 Jul 22 Jul 24 Jul 27 (40km) Jul 29 Jul 29 Jul 31
Aug 5 Aug 5 Aug 7 Aug 10 (40km) Aug 12 Aug 12 Aug 14 Aug 19 Aug 19
  Aug 21  
Aug 26 Aug 26 (Invitational) Aug 28
Sep 2 Sep 4 Sep 7 (40km) Sep 9 Sep 11 Sep 16 Sep 21 (40km) Sep 23 Sep 30

OTT Rankings
Best       Best by category
WTT Rankings for OBC Members
5 Best Speeds     5 Best Speeds by category
OBC Member Best Three 15km Rankings
Overall     by category     age-Hcap Female   age-Hcap Male
OBC BAR Ranking
Overall     by category     Rider "Consistency-Graph"
ABC BAR Ranking
Overall     by category     Rider "Consistency-Graph"
Other years
TT Calculator All TT People All TT events
ABC Home VVV Home
CKAP GOLD MEDAL
Other Links

Note: OTT data from 2003 through 2006-Apr-14 and 2007-Apr-06-? and WTT from 2008-? is taken from the official OBC site.

Please send your comments and suggestions to: Celia McInnis
Copyright © 1998-2011 Celia McInnis. All rights reserved. Links are welcomed.